Time;durP1;ratioP1;P1;durP2;ratioP2;P2;SDS_P1;SDS_P2;PMS_P1;PMS_P2;Temp;Humidity;BMP_temperature;BMP_pressure;BME280_temperature;BME280_humidity;BME280_pressure;Samples;Min_cycle;Max_cycle;Signal;HPM_P1;HPM_P2
2022/09/17 00:01:38;;;;;;;;;;;;;;;;;;5052889;28;19944;-66
2022/09/17 00:04:04;;;;;;;;;;;;;;;;;;5053276;28;20007;-67
2022/09/17 00:06:30;;;;;;;;;;;;;;;;;;5051587;28;20316;-65
2022/09/17 00:08:56;;;;;;;;;;;;;;;;;;5052916;28;19909;-67
2022/09/17 00:11:22;;;;;;;;;;;;;;;;;;5052211;28;19956;-66
2022/09/17 00:13:48;;;;;;;;;;;;;;;;;;5052344;28;19916;-67
2022/09/17 00:16:13;;;;;;;;;;;;;;;;;;5052774;28;19909;-63
2022/09/17 00:18:40;;;;;;;;;;;;;;;;;;5052752;28;20007;-67
2022/09/17 00:21:06;;;;;;;;;;;;;;;;;;5052663;28;19909;-66
2022/09/17 00:23:32;;;;;;;;;;;;;;;;;;5048852;28;19966;-67
2022/09/17 00:25:58;;;;;;;;;;;;;;;;;;5052141;28;19909;-67
2022/09/17 00:28:24;;;;;;;;;;;;;;;;;;5052379;28;19913;-67
2022/09/17 00:30:50;;;;;;;;;;;;;;;;;;5052576;28;19908;-67
2022/09/17 00:33:15;;;;;;;;;;;;;;;;;;5052086;28;19916;-66
2022/09/17 00:35:41;;;;;;;;;;;;;;;;;;5052155;28;19924;-67
2022/09/17 00:38:07;;;;;;;;;;;;;;;;;;5052674;28;19909;-67
2022/09/17 00:40:33;;;;;;;;;;;;;;;;;;5051021;28;19909;-67
2022/09/17 00:43:00;;;;;;;;;;;;;;;;;;5052161;28;19975;-68
2022/09/17 00:45:26;;;;;;;;;;;;;;;;;;5052542;28;19913;-67
2022/09/17 00:47:52;;;;;;;;;;;;;;;;;;5052037;28;20046;-67
2022/09/17 00:50:17;;;;;;;;;;;;;;;;;;5052327;28;19935;-64
2022/09/17 00:52:43;;;;;;;;;;;;;;;;;;5052065;28;19999;-66
2022/09/17 00:55:09;;;;;;;;;;;;;;;;;;5051171;28;19909;-66
2022/09/17 00:57:35;;;;;;;;;;;;;;;;;;5051466;28;19928;-67
2022/09/17 01:00:01;;;;;;;;;;;;;;;;;;5052498;28;19909;-67
2022/09/17 01:02:27;;;;;;;;;;;;;;;;;;5051830;28;19959;-67
2022/09/17 01:04:57;;;;;;;;;;;;;;;;;;5051729;28;20378;-67
2022/09/17 01:07:23;;;;;;;;;;;;;;;;;;5051747;28;19917;-67
2022/09/17 01:09:49;;;;;;;;;;;;;;;;;;5051232;28;19962;-67
2022/09/17 01:12:14;;;;;;;;;;;;;;;;;;5051652;28;19909;-67
2022/09/17 01:14:40;;;;;;;;;;;;;;;;;;5049959;28;19996;-67
2022/09/17 01:17:06;;;;;;;;;;;;;;;;;;5051965;28;19955;-65
2022/09/17 01:19:32;;;;;;;;;;;;;;;;;;5051255;28;19948;-68
2022/09/17 01:21:58;;;;;;;;;;;;;;;;;;5051499;28;19909;-67
2022/09/17 01:24:24;;;;;;;;;;;;;;;;;;5050744;28;19921;-68
2022/09/17 01:26:50;;;;;;;;;;;;;;;;;;5051770;28;20357;-68
2022/09/17 01:29:16;;;;;;;;;;;;;;;;;;5051246;28;19948;-67
2022/09/17 01:31:42;;;;;;;;;;;;;;;;;;5051080;28;19959;-67
2022/09/17 01:34:07;;;;;;;;;;;;;;;;;;5051293;28;19954;-66
2022/09/17 01:36:33;;;;;;;;;;;;;;;;;;5050915;28;19916;-67
2022/09/17 01:38:59;;;;;;;;;;;;;;;;;;5050554;28;19931;-68
2022/09/17 01:41:25;;;;;;;;;;;;;;;;;;5044590;28;19999;-68
2022/09/17 01:43:51;;;;;;;;;;;;;;;;;;5050903;28;20417;-68
2022/09/17 01:46:17;;;;;;;;;;;;;;;;;;5051023;28;20003;-67
2022/09/17 01:48:43;;;;;;;;;;;;;;;;;;5051117;28;20397;-67
2022/09/17 01:51:09;;;;;;;;;;;;;;;;;;5050865;28;19909;-67
2022/09/17 01:53:35;;;;;;;;;;;;;;;;;;5050638;28;19916;-68
2022/09/17 01:56:01;;;;;;;;;;;;;;;;;;5051017;28;19913;-67
2022/09/17 01:58:27;;;;;;;;;;;;;;;;;;5050705;28;19919;-68
2022/09/17 02:00:54;;;;;;;;;;;;;;;;;;5050873;28;19913;-67
2022/09/17 02:03:20;;;;;;;;;;;;;;;;;;5051201;28;19919;-67
2022/09/17 02:05:46;;;;;;;;;;;;;;;;;;5050637;28;19909;-66
2022/09/17 02:08:12;;;;;;;;;;;;;;;;;;5050592;28;19909;-67
2022/09/17 02:10:37;;;;;;;;;;;;;;;;;;5050656;28;19913;-65
2022/09/17 02:13:04;;;;;;;;;;;;;;;;;;5050457;28;19991;-66
2022/09/17 02:15:30;;;;;;;;;;;;;;;;;;5050784;28;19916;-67
2022/09/17 02:17:56;;;;;;;;;;;;;;;;;;5050982;28;19913;-66
2022/09/17 02:20:22;;;;;;;;;;;;;;;;;;5050991;28;19975;-67
2022/09/17 02:22:48;;;;;;;;;;;;;;;;;;5050204;28;19951;-66
2022/09/17 02:25:14;;;;;;;;;;;;;;;;;;5050375;28;19973;-66
2022/09/17 02:27:41;;;;;;;;;;;;;;;;;;5050212;28;19909;-66
2022/09/17 02:30:07;;;;;;;;;;;;;;;;;;5050978;28;19974;-65
2022/09/17 02:32:33;;;;;;;;;;;;;;;;;;5050736;28;20473;-66
2022/09/17 02:34:59;;;;;;;;;;;;;;;;;;5050618;28;19909;-65
2022/09/17 02:37:26;;;;;;;;;;;;;;;;;;5049926;28;20270;-67
2022/09/17 02:39:52;;;;;;;;;;;;;;;;;;5050574;28;19920;-67
2022/09/17 02:42:18;;;;;;;;;;;;;;;;;;5050885;28;19909;-67
2022/09/17 02:44:44;;;;;;;;;;;;;;;;;;5050454;28;20361;-66
2022/09/17 02:47:10;;;;;;;;;;;;;;;;;;5053681;28;19963;-66
2022/09/17 02:49:36;;;;;;;;;;;;;;;;;;5054029;28;19912;-67
2022/09/17 02:52:03;;;;;;;;;;;;;;;;;;5053928;28;19915;-66
2022/09/17 02:54:29;;;;;;;;;;;;;;;;;;5054372;28;19951;-67
2022/09/17 02:56:56;;;;;;;;;;;;;;;;;;5053837;28;19964;-66
2022/09/17 02:59:23;;;;;;;;;;;;;;;;;;5054069;28;19962;-67
2022/09/17 03:01:49;;;;;;;;;;;;;;;;;;5054222;28;19908;-67
2022/09/17 03:04:15;;;;;;;;;;;;;;;;;;5053992;28;20299;-66
2022/09/17 03:06:41;;;;;;;;;;;;;;;;;;5053537;28;19913;-64
2022/09/17 03:09:07;;;;;;;;;;;;;;;;;;5053548;28;19913;-65
2022/09/17 03:11:33;;;;;;;;;;;;;;;;;;5053791;28;20331;-67
2022/09/17 03:13:59;;;;;;;;;;;;;;;;;;5053939;28;19915;-66
2022/09/17 03:16:25;;;;;;;;;;;;;;;;;;5054095;28;19909;-66
2022/09/17 03:18:51;;;;;;;;;;;;;;;;;;5054224;28;19909;-67
2022/09/17 03:21:17;;;;;;;;;;;;;;;;;;5053194;28;19913;-66
2022/09/17 03:23:43;;;;;;;;;;;;;;;;;;5053550;28;19917;-67
2022/09/17 03:26:08;;;;;;;;;;;;;;;;;;5053593;28;19920;-67
2022/09/17 03:28:34;;;;;;;;;;;;;;;;;;5053316;28;19948;-66
2022/09/17 03:31:00;;;;;;;;;;;;;;;;;;5053330;28;19960;-66
2022/09/17 03:33:26;;;;;;;;;;;;;;;;;;5053453;28;20007;-67
2022/09/17 03:35:52;;;;;;;;;;;;;;;;;;5053004;28;20293;-67
2022/09/17 03:38:18;;;;;;;;;;;;;;;;;;5053459;28;19970;-66
2022/09/17 03:40:44;;;;;;;;;;;;;;;;;;5053446;28;20576;-64
2022/09/17 03:43:10;;;;;;;;;;;;;;;;;;5053005;28;19916;-66
2022/09/17 03:45:35;;;;;;;;;;;;;;;;;;5053354;28;19923;-66
2022/09/17 03:48:01;;;;;;;;;;;;;;;;;;5052965;28;20344;-67
2022/09/17 03:50:27;;;;;;;;;;;;;;;;;;5051318;28;19963;-66
2022/09/17 03:52:53;;;;;;;;;;;;;;;;;;5053357;28;20445;-67
2022/09/17 03:55:19;;;;;;;;;;;;;;;;;;5053400;28;19909;-66
2022/09/17 03:57:45;;;;;;;;;;;;;;;;;;5045809;28;19920;-67
2022/09/17 04:00:11;;;;;;;;;;;;;;;;;;5052975;28;19909;-67
2022/09/17 04:02:37;;;;;;;;;;;;;;;;;;5052750;28;20036;-67
2022/09/17 04:05:03;;;;;;;;;;;;;;;;;;5052360;28;20452;-67
2022/09/17 04:07:29;;;;;;;;;;;;;;;;;;5052989;28;19917;-66
2022/09/17 04:09:55;;;;;;;;;;;;;;;;;;5052891;28;20243;-67
2022/09/17 04:12:21;;;;;;;;;;;;;;;;;;5052667;28;19948;-65
2022/09/17 04:14:47;;;;;;;;;;;;;;;;;;5052963;28;19999;-67
2022/09/17 04:17:16;;;;;;;;;;;;;;;;;;5052528;28;20009;-66
2022/09/17 04:19:42;;;;;;;;;;;;;;;;;;5052458;28;19920;-67
2022/09/17 04:22:08;;;;;;;;;;;;;;;;;;5051810;28;20301;-66
2022/09/17 04:24:34;;;;;;;;;;;;;;;;;;5052164;28;20008;-67
2022/09/17 04:27:00;;;;;;;;;;;;;;;;;;5052180;28;19909;-66
2022/09/17 04:29:27;;;;;;;;;;;;;;;;;;5052558;28;19916;-66
2022/09/17 04:31:53;;;;;;;;;;;;;;;;;;5051690;28;19920;-67
2022/09/17 04:34:19;;;;;;;;;;;;;;;;;;5051950;28;19909;-65
2022/09/17 04:36:44;;;;;;;;;;;;;;;;;;5052573;28;20002;-67
2022/09/17 04:39:10;;;;;;;;;;;;;;;;;;5052113;28;20051;-66
2022/09/17 04:41:36;;;;;;;;;;;;;;;;;;5052017;28;19909;-67
2022/09/17 04:44:02;;;;;;;;;;;;;;;;;;5052452;28;20007;-67
2022/09/17 04:46:28;;;;;;;;;;;;;;;;;;5051533;28;19909;-67
2022/09/17 04:48:54;;;;;;;;;;;;;;;;;;5051632;28;19908;-67
2022/09/17 04:51:20;;;;;;;;;;;;;;;;;;5052415;28;19992;-65
2022/09/17 04:53:46;;;;;;;;;;;;;;;;;;5052329;28;19909;-66
2022/09/17 04:56:12;;;;;;;;;;;;;;;;;;5051672;28;19921;-67
2022/09/17 04:58:38;;;;;;;;;;;;;;;;;;5051640;28;19947;-66
2022/09/17 05:01:04;;;;;;;;;;;;;;;;;;5051392;28;19926;-67
2022/09/17 05:03:30;;;;;;;;;;;;;;;;;;5051763;28;20119;-67
2022/09/17 05:05:55;;;;;;;;;;;;;;;;;;5045060;28;20436;-67
2022/09/17 05:08:22;;;;;;;;;;;;;;;;;;5051406;28;19951;-65
2022/09/17 05:10:49;;;;;;;;;;;;;;;;;;5050972;28;20336;-66
2022/09/17 05:13:14;;;;;;;;;;;;;;;;;;5051528;28;19975;-66
2022/09/17 05:15:41;;;;;;;;;;;;;;;;;;5051376;28;20389;-63
2022/09/17 05:18:07;;;;;;;;;;;;;;;;;;5051316;28;19967;-66
2022/09/17 05:20:32;;;;;;;;;;;;;;;;;;5051642;28;19913;-67
2022/09/17 05:22:58;;;;;;;;;;;;;;;;;;5051865;28;19935;-66
2022/09/17 05:25:24;;;;;;;;;;;;;;;;;;5051436;28;19917;-64
2022/09/17 05:27:51;;;;;;;;;;;;;;;;;;5051350;28;19916;-66
2022/09/17 05:30:17;;;;;;;;;;;;;;;;;;5051204;28;19912;-66
2022/09/17 05:32:42;;;;;;;;;;;;;;;;;;5050899;28;20339;-65
2022/09/17 05:35:08;;;;;;;;;;;;;;;;;;5051298;28;19954;-67
2022/09/17 05:37:34;;;;;;;;;;;;;;;;;;5051222;28;19909;-66
2022/09/17 05:40:00;;;;;;;;;;;;;;;;;;5051411;28;19909;-66
2022/09/17 05:42:26;;;;;;;;;;;;;;;;;;5051270;28;19932;-66
2022/09/17 05:44:52;;;;;;;;;;;;;;;;;;5050707;28;19917;-67
2022/09/17 05:47:18;;;;;;;;;;;;;;;;;;5051509;28;19916;-66
2022/09/17 05:49:44;;;;;;;;;;;;;;;;;;5050643;28;19920;-66
2022/09/17 05:52:10;;;;;;;;;;;;;;;;;;5050831;28;19909;-65
2022/09/17 05:54:36;;;;;;;;;;;;;;;;;;5050597;28;19956;-67
2022/09/17 05:57:02;;;;;;;;;;;;;;;;;;5050774;28;19928;-66
2022/09/17 05:59:27;;;;;;;;;;;;;;;;;;5050215;28;20004;-65
2022/09/17 06:01:53;;;;;;;;;;;;;;;;;;5050399;28;19963;-66
2022/09/17 06:04:19;;;;;;;;;;;;;;;;;;5050219;28;19917;-67
2022/09/17 06:06:45;;;;;;;;;;;;;;;;;;5050509;28;19912;-66
2022/09/17 06:09:11;;;;;;;;;;;;;;;;;;5051079;28;19909;-67
2022/09/17 06:11:37;;;;;;;;;;;;;;;;;;5050524;28;20385;-65
2022/09/17 06:14:03;;;;;;;;;;;;;;;;;;5050082;28;19917;-66
2022/09/17 06:16:29;;;;;;;;;;;;;;;;;;5050164;28;19976;-66
2022/09/17 06:18:55;;;;;;;;;;;;;;;;;;5050404;28;19959;-66
2022/09/17 06:21:21;;;;;;;;;;;;;;;;;;5051947;28;20489;-67
2022/09/17 06:23:47;;;;;;;;;;;;;;;;;;5054916;28;19948;-66
2022/09/17 06:26:13;;;;;;;;;;;;;;;;;;5054445;28;19948;-66
2022/09/17 06:28:39;;;;;;;;;;;;;;;;;;5053851;28;20597;-67
2022/09/17 06:31:05;;;;;;;;;;;;;;;;;;5054742;28;19913;-66
2022/09/17 06:33:31;;;;;;;;;;;;;;;;;;5053948;28;19936;-67
2022/09/17 06:35:59;;;;;;;;;;;;;;;;;;5054814;28;19912;-66
2022/09/17 06:38:25;;;;;;;;;;;;;;;;;;5054365;28;19913;-66
2022/09/17 06:40:51;;;;;;;;;;;;;;;;;;5053920;28;19923;-65
2022/09/17 06:43:17;;;;;;;;;;;;;;;;;;5053435;28;19913;-66
2022/09/17 06:45:43;;;;;;;;;;;;;;;;;;5054298;28;20381;-66
2022/09/17 06:48:08;;;;;;;;;;;;;;;;;;5053967;28;19912;-67
2022/09/17 06:50:34;;;;;;;;;;;;;;;;;;5053999;28;19913;-67
2022/09/17 06:53:00;;;;;;;;;;;;;;;;;;5053876;28;20328;-65
2022/09/17 06:55:27;;;;;;;;;;;;;;;;;;5054538;28;19996;-66
2022/09/17 06:57:52;;;;;;;;;;;;;;;;;;5053329;28;19959;-67
2022/09/17 07:00:18;;;;;;;;;;;;;;;;;;5053943;28;19909;-67
2022/09/17 07:02:44;;;;;;;;;;;;;;;;;;5054031;28;20369;-66
2022/09/17 07:05:10;;;;;;;;;;;;;;;;;;5053646;28;20385;-66
2022/09/17 07:07:38;;;;;;;;;;;;;;;;;;5053544;28;19909;-66
2022/09/17 07:10:03;;;;;;;;;;;;;;;;;;5053272;28;19917;-66
2022/09/17 07:12:29;;;;;;;;;;;;;;;;;;5052899;28;19955;-66
2022/09/17 07:14:55;;;;;;;;;;;;;;;;;;5053655;28;19928;-66
2022/09/17 07:17:22;;;;;;;;;;;;;;;;;;5054406;28;20455;-67
2022/09/17 07:19:48;;;;;;;;;;;;;;;;;;5046778;28;19915;-67
2022/09/17 07:22:14;;;;;;;;;;;;;;;;;;5053306;28;19913;-67
2022/09/17 07:24:39;;;;;;;;;;;;;;;;;;5053207;28;19917;-67
2022/09/17 07:27:05;;;;;;;;;;;;;;;;;;5052471;28;20003;-66
2022/09/17 07:29:31;;;;;;;;;;;;;;;;;;5053709;28;19909;-66
2022/09/17 07:31:58;;;;;;;;;;;;;;;;;;5052615;28;19912;-66
2022/09/17 07:34:26;;;;;;;;;;;;;;;;;;5052672;28;19909;-67
2022/09/17 07:36:52;;;;;;;;;;;;;;;;;;5053182;28;20254;-65
2022/09/17 07:39:18;;;;;;;;;;;;;;;;;;5053078;28;19955;-66
2022/09/17 07:41:44;;;;;;;;;;;;;;;;;;5052823;28;19963;-65
2022/09/17 07:44:10;;;;;;;;;;;;;;;;;;5053250;28;19923;-66
2022/09/17 07:46:36;;;;;;;;;;;;;;;;;;5051585;28;19917;-65
2022/09/17 07:49:02;;;;;;;;;;;;;;;;;;5052637;28;19959;-63
2022/09/17 07:51:28;;;;;;;;;;;;;;;;;;5047477;28;19920;-64
2022/09/17 07:53:54;;;;;;;;;;;;;;;;;;5052875;28;19917;-73
2022/09/17 07:56:20;;;;;;;;;;;;;;;;;;5045557;28;19966;-74
2022/09/17 07:58:46;;;;;;;;;;;;;;;;;;5044427;28;20004;-74
2022/09/17 08:01:12;;;;;;;;;;;;;;;;;;5052608;28;19913;-73
2022/09/17 08:03:38;;;;;;;;;;;;;;;;;;5052498;28;19912;-74
2022/09/17 08:06:04;;;;;;;;;;;;;;;;;;5052546;28;19913;-74
2022/09/17 08:08:31;;;;;;;;;;;;;;;;;;5051807;28;19909;-75
2022/09/17 08:10:57;;;;;;;;;;;;;;;;;;5051679;28;19913;-72
2022/09/17 08:13:23;;;;;;;;;;;;;;;;;;5053465;28;19909;-72
2022/09/17 08:15:49;;;;;;;;;;;;;;;;;;5052545;28;19931;-72
2022/09/17 08:18:15;;;;;;;;;;;;;;;;;;5052396;28;20000;-72
2022/09/17 08:20:41;;;;;;;;;;;;;;;;;;5052556;28;19935;-73
2022/09/17 08:23:07;;;;;;;;;;;;;;;;;;5052562;28;20292;-74
2022/09/17 08:25:33;;;;;;;;;;;;;;;;;;5050459;28;19917;-72
2022/09/17 08:27:59;;;;;;;;;;;;;;;;;;5044023;28;19940;-74
2022/09/17 08:30:25;;;;;;;;;;;;;;;;;;5043399;28;20370;-73
2022/09/17 08:32:51;;;;;;;;;;;;;;;;;;5050871;28;20286;-74
2022/09/17 08:35:17;;;;;;;;;;;;;;;;;;5048049;28;19909;-73
2022/09/17 08:37:43;;;;;;;;;;;;;;;;;;5050818;28;19909;-74
2022/09/17 08:40:09;;;;;;;;;;;;;;;;;;5050108;28;19912;-74
2022/09/17 08:42:35;;;;;;;;;;;;;;;;;;5050229;28;19915;-74
2022/09/17 08:45:01;;;;;;;;;;;;;;;;;;5049805;28;19916;-73
2022/09/17 08:47:26;;;;;;;;;;;;;;;;;;5049057;28;19920;-75
2022/09/17 08:49:52;;;;;;;;;;;;;;;;;;5039330;28;19916;-75
2022/09/17 08:52:18;;;;;;;;;;;;;;;;;;5050221;28;20310;-75
2022/09/17 08:54:44;;;;;;;;;;;;;;;;;;5050650;28;19956;-75
2022/09/17 08:57:10;;;;;;;;;;;;;;;;;;5049647;28;20253;-75
2022/09/17 08:59:37;;;;;;;;;;;;;;;;;;5051251;28;20506;-75
2022/09/17 09:02:03;;;;;;;;;;;;;;;;;;5050376;28;20008;-76
2022/09/17 09:04:30;;;;;;;;;;;;;;;;;;5049863;28;20019;-77
2022/09/17 09:06:55;;;;;;;;;;;;;;;;;;5050250;28;19944;-77
2022/09/17 09:09:21;;;;;;;;;;;;;;;;;;5049793;28;19947;-77
2022/09/17 09:11:47;;;;;;;;;;;;;;;;;;5049485;28;19920;-75
2022/09/17 09:14:13;;;;;;;;;;;;;;;;;;5049924;28;19909;-76
2022/09/17 09:16:39;;;;;;;;;;;;;;;;;;5050762;28;19929;-77
2022/09/17 09:19:05;;;;;;;;;;;;;;;;;;5048532;28;20329;-75
2022/09/17 09:21:31;;;;;;;;;;;;;;;;;;5050138;28;19960;-77
2022/09/17 09:23:57;;;;;;;;;;;;;;;;;;5049595;28;19917;-75
2022/09/17 09:26:23;;;;;;;;;;;;;;;;;;5050171;28;20007;-78
2022/09/17 09:28:49;;;;;;;;;;;;;;;;;;5050462;28;20023;-77
2022/09/17 09:31:15;;;;;;;;;;;;;;;;;;5048762;28;19964;-74
2022/09/17 09:33:41;;;;;;;;;;;;;;;;;;5049878;28;19913;-78
2022/09/17 09:36:07;;;;;;;;;;;;;;;;;;5050508;28;19932;-75
2022/09/17 09:38:33;;;;;;;;;;;;;;;;;;5049541;28;20047;-72
2022/09/17 09:40:59;;;;;;;;;;;;;;;;;;5049471;28;20397;-72
2022/09/17 09:43:25;;;;;;;;;;;;;;;;;;5049870;28;20060;-71
2022/09/17 09:45:51;;;;;;;;;;;;;;;;;;5049856;28;19917;-74
2022/09/17 09:48:16;;;;;;;;;;;;;;;;;;5049390;28;19919;-73
2022/09/17 09:50:42;;;;;;;;;;;;;;;;;;5049800;28;19913;-75
2022/09/17 09:53:08;;;;;;;;;;;;;;;;;;5048841;28;20011;-74
2022/09/17 09:55:34;;;;;;;;;;;;;;;;;;5048761;28;19999;-75
2022/09/17 09:58:00;;;;;;;;;;;;;;;;;;5050221;28;19913;-73
2022/09/17 10:00:27;;;;;;;;;;;;;;;;;;5041903;28;19917;-75
2022/09/17 10:02:53;;;;;;;;;;;;;;;;;;5049344;28;19970;-74
2022/09/17 10:05:19;;;;;;;;;;;;;;;;;;5049020;28;19920;-75
2022/09/17 10:07:45;;;;;;;;;;;;;;;;;;5049243;28;19916;-75
2022/09/17 10:10:11;;;;;;;;;;;;;;;;;;5049609;28;19948;-76
2022/09/17 10:12:37;;;;;;;;;;;;;;;;;;5047828;28;20033;-75
2022/09/17 10:15:03;;;;;;;;;;;;;;;;;;5049771;28;19916;-75
2022/09/17 10:17:29;;;;;;;;;;;;;;;;;;5049671;28;19909;-75
2022/09/17 10:19:54;;;;;;;;;;;;;;;;;;5049322;28;20003;-74
2022/09/17 10:22:20;;;;;;;;;;;;;;;;;;5048840;28;19909;-74
2022/09/17 10:24:46;;;;;;;;;;;;;;;;;;5049960;28;19995;-74
2022/09/17 10:27:12;;;;;;;;;;;;;;;;;;5049309;28;19936;-75
2022/09/17 10:29:38;;;;;;;;;;;;;;;;;;5049044;28;19916;-75
2022/09/17 10:32:05;;;;;;;;;;;;;;;;;;5049519;28;19920;-75
2022/09/17 10:34:31;;;;;;;;;;;;;;;;;;5048896;28;19912;-76
2022/09/17 10:36:57;;;;;;;;;;;;;;;;;;5048750;28;19920;-76
2022/09/17 10:39:23;;;;;;;;;;;;;;;;;;5049487;28;19991;-75
2022/09/17 10:41:49;;;;;;;;;;;;;;;;;;5048709;28;20365;-74
2022/09/17 10:44:15;;;;;;;;;;;;;;;;;;5049105;28;20010;-75
2022/09/17 10:46:41;;;;;;;;;;;;;;;;;;5048685;28;20296;-75
2022/09/17 10:49:07;;;;;;;;;;;;;;;;;;5047366;28;19915;-76
2022/09/17 10:51:32;;;;;;;;;;;;;;;;;;5048940;28;20365;-77
2022/09/17 10:53:58;;;;;;;;;;;;;;;;;;5049231;28;20012;-74
2022/09/17 10:56:24;;;;;;;;;;;;;;;;;;5047006;28;19932;-78
2022/09/17 10:58:50;;;;;;;;;;;;;;;;;;5049012;28;20297;-78
2022/09/17 11:01:16;;;;;;;;;;;;;;;;;;5049003;28;19909;-78
2022/09/17 11:03:42;;;;;;;;;;;;;;;;;;5048111;28;19924;-77
2022/09/17 11:06:08;;;;;;;;;;;;;;;;;;5049152;28;19909;-78
2022/09/17 11:08:34;;;;;;;;;;;;;;;;;;5049290;28;20284;-78
2022/09/17 11:11:00;;;;;;;;;;;;;;;;;;5052768;28;19959;-77
2022/09/17 11:13:26;;;;;;;;;;;;;;;;;;5052641;28;19909;-77
2022/09/17 11:15:52;;;;;;;;;;;;;;;;;;5052624;28;19913;-76
2022/09/17 11:18:17;;;;;;;;;;;;;;;;;;5052020;28;19912;-77
2022/09/17 11:20:43;;;;;;;;;;;;;;;;;;5052167;28;19952;-75
2022/09/17 11:23:09;;;;;;;;;;;;;;;;;;5050992;28;19971;-76
2022/09/17 11:25:35;;;;;;;;;;;;;;;;;;5050804;28;19978;-77
2022/09/17 11:28:01;;;;;;;;;;;;;;;;;;5052305;28;19909;-79
2022/09/17 11:30:27;;;;;;;;;;;;;;;;;;5051875;28;19909;-78
2022/09/17 11:32:53;;;;;;;;;;;;;;;;;;5052282;28;19913;-79
2022/09/17 11:35:19;;;;;;;;;;;;;;;;;;5051697;28;19920;-76
2022/09/17 11:37:47;;;;;;;;;;;;;;;;;;5051815;28;19913;-76
2022/09/17 11:40:13;;;;;;;;;;;;;;;;;;5052023;28;19909;-76
2022/09/17 11:42:39;;;;;;;;;;;;;;;;;;5052058;28;20378;-75
2022/09/17 11:45:05;;;;;;;;;;;;;;;;;;5050276;28;19928;-77
2022/09/17 11:47:31;;;;;;;;;;;;;;;;;;5051435;28;19934;-84
2022/09/17 11:49:57;;;;;;;;;;;;;;;;;;5051931;28;19955;-75
2022/09/17 11:52:23;;;;;;;;;;;;;;;;;;5051993;28;19934;-75
2022/09/17 11:54:49;;;;;;;;;;;;;;;;;;5052425;28;19916;-80
2022/09/17 11:57:15;;;;;;;;;;;;;;;;;;5051488;28;19931;-78
2022/09/17 11:59:41;;;;;;;;;;;;;;;;;;5051378;28;20324;-80
2022/09/17 12:02:06;;;;;;;;;;;;;;;;;;5051546;28;19924;-74
2022/09/17 12:04:32;;;;;;;;;;;;;;;;;;5051396;28;19975;-77
2022/09/17 12:06:59;;;;;;;;;;;;;;;;;;5049968;28;20289;-75
2022/09/17 12:09:24;;;;;;;;;;;;;;;;;;5051446;28;19917;-78
2022/09/17 12:11:50;;;;;;;;;;;;;;;;;;5051392;28;20393;-84
2022/09/17 12:14:16;;;;;;;;;;;;;;;;;;5051193;28;19915;-78
2022/09/17 12:16:42;;;;;;;;;;;;;;;;;;5050772;28;19935;-76
2022/09/17 12:19:08;;;;;;;;;;;;;;;;;;5050936;28;19912;-77
2022/09/17 12:21:34;;;;;;;;;;;;;;;;;;5051302;28;20007;-76
2022/09/17 12:24:00;;;;;;;;;;;;;;;;;;5051211;28;19917;-76
2022/09/17 12:26:28;;;;;;;;;;;;;;;;;;5050773;28;20067;-81
2022/09/17 12:28:54;;;;;;;;;;;;;;;;;;5051308;28;20058;-75
2022/09/17 12:31:19;;;;;;;;;;;;;;;;;;5050317;28;20003;-80
2022/09/17 12:33:45;;;;;;;;;;;;;;;;;;5051196;28;19912;-77
2022/09/17 12:36:12;;;;;;;;;;;;;;;;;;5051075;28;19913;-84
2022/09/17 12:38:37;;;;;;;;;;;;;;;;;;5050895;28;19909;-68
2022/09/17 12:41:03;;;;;;;;;;;;;;;;;;5050775;28;19920;-70
2022/09/17 12:43:29;;;;;;;;;;;;;;;;;;5051123;28;19913;-78
2022/09/17 12:45:55;;;;;;;;;;;;;;;;;;5050116;28;19963;-79
2022/09/17 12:48:21;;;;;;;;;;;;;;;;;;5050629;28;20305;-75
2022/09/17 12:50:47;;;;;;;;;;;;;;;;;;5051086;28;20500;-77
2022/09/17 12:53:13;;;;;;;;;;;;;;;;;;5050348;28;19913;-79
2022/09/17 12:55:39;;;;;;;;;;;;;;;;;;5050122;28;20480;-76
2022/09/17 12:58:05;;;;;;;;;;;;;;;;;;5050411;28;19924;-76
2022/09/17 13:00:31;;;;;;;;;;;;;;;;;;5049743;28;20011;-77
2022/09/17 13:02:57;;;;;;;;;;;;;;;;;;5049634;28;19986;-77
2022/09/17 13:05:23;;;;;;;;;;;;;;;;;;5046776;28;20389;-77
2022/09/17 13:07:51;;;;;;;;;;;;;;;;;;5050019;28;19916;-77
2022/09/17 13:10:17;;;;;;;;;;;;;;;;;;5049810;28;19959;-73
2022/09/17 13:12:43;;;;;;;;;;;;;;;;;;5050520;28;19944;-72
2022/09/17 13:15:09;;;;;;;;;;;;;;;;;;5049368;28;19909;-73
2022/09/17 13:17:35;;;;;;;;;;;;;;;;;;5050380;28;19924;-73
2022/09/17 13:20:00;;;;;;;;;;;;;;;;;;5050369;28;19949;-73
2022/09/17 13:22:26;;;;;;;;;;;;;;;;;;5049687;28;19966;-73
2022/09/17 13:24:52;;;;;;;;;;;;;;;;;;5049802;28;19979;-73
2022/09/17 13:27:18;;;;;;;;;;;;;;;;;;5050323;28;19908;-73
2022/09/17 13:29:47;;;;;;;;;;;;;;;;;;5047656;28;19916;-75
2022/09/17 13:32:13;;;;;;;;;;;;;;;;;;5049389;28;20374;-74
2022/09/17 13:34:39;;;;;;;;;;;;;;;;;;5049864;28;20054;-73
2022/09/17 13:37:05;;;;;;;;;;;;;;;;;;5049262;28;19928;-74
2022/09/17 13:39:31;;;;;;;;;;;;;;;;;;5048619;28;19920;-75
2022/09/17 13:41:57;;;;;;;;;;;;;;;;;;5049714;28;20469;-76
2022/09/17 13:44:23;;;;;;;;;;;;;;;;;;5049630;28;20523;-74
2022/09/17 13:46:51;;;;;;;;;;;;;;;;;;5049354;28;19992;-76
2022/09/17 13:49:17;;;;;;;;;;;;;;;;;;5049972;28;19924;-74
2022/09/17 13:51:43;;;;;;;;;;;;;;;;;;5049862;28;19912;-74
2022/09/17 13:54:09;;;;;;;;;;;;;;;;;;5049233;28;20282;-73
2022/09/17 13:56:35;;;;;;;;;;;;;;;;;;5048531;28;20412;-76
2022/09/17 13:59:01;;;;;;;;;;;;;;;;;;5049026;28;19908;-75
2022/09/17 14:01:27;;;;;;;;;;;;;;;;;;5049717;28;19909;-74
2022/09/17 14:03:53;;;;;;;;;;;;;;;;;;5049127;28;19913;-73
2022/09/17 14:06:20;;;;;;;;;;;;;;;;;;5049443;28;19920;-74
2022/09/17 14:08:46;;;;;;;;;;;;;;;;;;5049518;28;19909;-74
2022/09/17 14:11:12;;;;;;;;;;;;;;;;;;5050038;28;20215;-75
2022/09/17 14:13:38;;;;;;;;;;;;;;;;;;5048744;28;19909;-74
2022/09/17 14:16:04;;;;;;;;;;;;;;;;;;5049434;28;20285;-73
2022/09/17 14:18:30;;;;;;;;;;;;;;;;;;5049099;28;19913;-74
2022/09/17 14:20:56;;;;;;;;;;;;;;;;;;5049162;28;20278;-74
2022/09/17 14:23:22;;;;;;;;;;;;;;;;;;5049371;28;19916;-73
2022/09/17 14:25:48;;;;;;;;;;;;;;;;;;5049187;28;19974;-73
2022/09/17 14:28:14;;;;;;;;;;;;;;;;;;5049061;28;19909;-72
2022/09/17 14:30:40;;;;;;;;;;;;;;;;;;5049354;28;19909;-72
2022/09/17 14:33:06;;;;;;;;;;;;;;;;;;5048216;28;19920;-73
2022/09/17 14:35:32;;;;;;;;;;;;;;;;;;5048376;28;19917;-72
2022/09/17 14:37:58;;;;;;;;;;;;;;;;;;5048559;28;19999;-73
2022/09/17 14:40:24;;;;;;;;;;;;;;;;;;5049894;28;19917;-72
2022/09/17 14:42:50;;;;;;;;;;;;;;;;;;5050770;28;19913;-73
2022/09/17 14:45:16;;;;;;;;;;;;;;;;;;5052602;28;19916;-72
2022/09/17 14:47:41;;;;;;;;;;;;;;;;;;5052705;28;19909;-71
2022/09/17 14:50:07;;;;;;;;;;;;;;;;;;5053121;28;19909;-72
2022/09/17 14:52:33;;;;;;;;;;;;;;;;;;5052726;28;19913;-73
2022/09/17 14:54:59;;;;;;;;;;;;;;;;;;5052377;28;19913;-72
2022/09/17 14:57:25;;;;;;;;;;;;;;;;;;5052421;28;19932;-72
2022/09/17 14:59:51;;;;;;;;;;;;;;;;;;5052166;28;20007;-73
2022/09/17 15:02:17;;;;;;;;;;;;;;;;;;5052550;28;19908;-72
2022/09/17 15:04:43;;;;;;;;;;;;;;;;;;5052903;28;19920;-73
2022/09/17 15:07:09;;;;;;;;;;;;;;;;;;5051195;28;19912;-73
2022/09/17 15:09:35;;;;;;;;;;;;;;;;;;5052512;28;19909;-72
2022/09/17 15:12:00;;;;;;;;;;;;;;;;;;5051640;28;19975;-73
2022/09/17 15:14:27;;;;;;;;;;;;;;;;;;5052605;28;20337;-73
2022/09/17 15:16:52;;;;;;;;;;;;;;;;;;5052677;28;20324;-73
2022/09/17 15:19:18;;;;;;;;;;;;;;;;;;5052174;28;19924;-72
2022/09/17 15:21:44;;;;;;;;;;;;;;;;;;5051786;28;19995;-73
2022/09/17 15:24:10;;;;;;;;;;;;;;;;;;5052832;28;19917;-73
2022/09/17 15:26:36;;;;;;;;;;;;;;;;;;5051521;28;19908;-71
2022/09/17 15:29:02;;;;;;;;;;;;;;;;;;5051854;28;19913;-72
2022/09/17 15:31:29;;;;;;;;;;;;;;;;;;5051679;28;19909;-74
2022/09/17 15:33:55;;;;;;;;;;;;;;;;;;5052388;28;19923;-74
2022/09/17 15:36:20;;;;;;;;;;;;;;;;;;5052092;28;19909;-75
2022/09/17 15:38:46;;;;;;;;;;;;;;;;;;5051051;28;19909;-74
2022/09/17 15:41:12;;;;;;;;;;;;;;;;;;5051313;28;19915;-75
2022/09/17 15:43:40;;;;;;;;;;;;;;;;;;5052160;28;19935;-77
2022/09/17 15:46:06;;;;;;;;;;;;;;;;;;5052041;28;19966;-75
2022/09/17 15:48:35;;;;;;;;;;;;;;;;;;5051869;28;20293;-81
2022/09/17 15:51:01;;;;;;;;;;;;;;;;;;5050394;28;20278;-83
2022/09/17 15:53:27;;;;;;;;;;;;;;;;;;5048202;28;19946;-79
2022/09/17 15:55:53;;;;;;;;;;;;;;;;;;5044560;28;19921;-78
2022/09/17 15:58:19;;;;;;;;;;;;;;;;;;5053027;28;20199;-76
2022/09/17 16:00:45;;;;;;;;;;;;;;;;;;5052866;28;20011;-75
2022/09/17 16:03:11;;;;;;;;;;;;;;;;;;5052763;28;19974;-78
2022/09/17 16:05:37;;;;;;;;;;;;;;;;;;5051045;28;20386;-79
2022/09/17 16:08:03;;;;;;;;;;;;;;;;;;5052653;28;19927;-84
2022/09/17 16:10:28;;;;;;;;;;;;;;;;;;5052712;28;20285;-77
2022/09/17 16:12:54;;;;;;;;;;;;;;;;;;5052720;28;19997;-82
2022/09/17 16:15:20;;;;;;;;;;;;;;;;;;5053051;28;19912;-79
2022/09/17 16:17:46;;;;;;;;;;;;;;;;;;5053189;28;20405;-84
2022/09/17 16:20:13;;;;;;;;;;;;;;;;;;5052669;28;19909;-82
2022/09/17 16:22:39;;;;;;;;;;;;;;;;;;5052192;28;19967;-80
2022/09/17 16:25:05;;;;;;;;;;;;;;;;;;5052680;28;19921;-83
2022/09/17 16:27:31;;;;;;;;;;;;;;;;;;5048663;28;19913;-83
2022/09/17 16:29:57;;;;;;;;;;;;;;;;;;5051789;28;20381;-79
2022/09/17 16:32:23;;;;;;;;;;;;;;;;;;5051675;28;19909;-77
2022/09/17 16:34:49;;;;;;;;;;;;;;;;;;5051726;28;19908;-72
2022/09/17 16:37:14;;;;;;;;;;;;;;;;;;5051433;28;19912;-71